Time;durP1;ratioP1;P1;durP2;ratioP2;P2;SDS_P1;SDS_P2;PMS_P1;PMS_P2;Temp;Humidity;BMP_temperature;BMP_pressure;BME280_temperature;BME280_humidity;BME280_pressure;Samples;Min_cycle;Max_cycle;Signal;HPM_P1;HPM_P2
2022/10/13 00:01:27;;;;;;;32.20;22.38;;;;;;;11.25;99.17;101196.91;5031166;28;20029;-73
2022/10/13 00:03:53;;;;;;;36.95;24.30;;;;;;;11.18;98.99;101191.19;5032359;28;20033;-73
2022/10/13 00:06:21;;;;;;;33.00;23.52;;;;;;;11.03;99.05;101176.22;5031836;28;20049;-75
2022/10/13 00:08:47;;;;;;;33.50;22.63;;;;;;;11.11;99.25;101198.00;5032277;28;20517;-76
2022/10/13 00:11:21;;;;;;;34.40;23.80;;;;;;;11.07;99.39;101203.72;5032324;28;20059;-75
2022/10/13 00:13:47;;;;;;;31.25;23.35;;;;;;;11.02;99.13;101201.38;5030778;28;20091;-76
2022/10/13 00:16:15;;;;;;;33.55;23.67;;;;;;;10.99;99.01;101204.28;5030974;28;20025;-75
2022/10/13 00:18:40;;;;;;;32.15;22.42;;;;;;;10.82;98.58;101175.19;5030410;28;20037;-76
2022/10/13 00:21:12;;;;;;;33.70;23.98;;;;;;;10.78;99.71;101178.22;5031912;28;20028;-75
2022/10/13 00:23:39;;;;;;;36.13;24.48;;;;;;;10.86;99.60;101203.50;5032054;28;20045;-76
2022/10/13 00:26:08;;;;;;;34.47;24.20;;;;;;;10.85;100.00;101203.59;5030300;28;20079;-76
2022/10/13 00:28:34;;;;;;;38.30;24.08;;;;;;;10.80;100.00;101195.91;5032068;28;20040;-75
2022/10/13 00:31:00;;;;;;;33.28;21.95;;;;;;;10.71;99.50;101187.69;5032044;28;20100;-75
2022/10/13 00:33:26;;;;;;;32.78;22.42;;;;;;;10.75;99.75;101198.09;5031658;28;20581;-75
2022/10/13 00:35:51;;;;;;;35.50;22.77;;;;;;;10.74;100.00;101195.50;5031501;28;20083;-75
2022/10/13 00:38:18;;;;;;;30.17;22.05;;;;;;;10.72;99.62;101197.44;5031817;28;20112;-76
2022/10/13 00:40:50;;;;;;;34.08;21.65;;;;;;;10.68;100.00;101196.81;5031750;28;20028;-75
2022/10/13 00:43:18;;;;;;;30.15;21.10;;;;;;;10.66;100.00;101198.75;5031294;28;20065;-76
2022/10/13 00:45:44;;;;;;;33.42;21.38;;;;;;;10.55;100.00;101177.22;5031421;28;20026;-75
2022/10/13 00:48:10;;;;;;;28.15;20.75;;;;;;;10.52;99.94;101168.56;5031697;28;20025;-76
2022/10/13 00:50:40;;;;;;;30.25;21.13;;;;;;;10.60;100.00;101191.16;5030133;28;20056;-76
2022/10/13 00:53:07;;;;;;;31.50;20.83;;;;;;;10.61;100.00;101192.03;5031330;28;20575;-76
2022/10/13 00:55:35;;;;;;;30.35;20.95;;;;;;;10.57;99.81;101195.88;5031303;28;20079;-76
2022/10/13 00:58:05;;;;;;;30.58;21.27;;;;;;;10.53;100.00;101199.78;5031755;28;20037;-75
2022/10/13 01:00:32;;;;;;;30.00;20.65;;;;;;;10.47;99.57;101195.72;5030310;28;20025;-75
2022/10/13 01:02:57;;;;;;;29.15;21.17;;;;;;;10.42;99.58;101192.50;5031489;28;20042;-76
2022/10/13 01:05:24;;;;;;;30.52;20.45;;;;;;;10.44;99.89;101201.31;5031254;28;20033;-75
2022/10/13 01:07:51;;;;;;;27.48;19.92;;;;;;;10.32;99.88;101191.47;5030990;28;20021;-76
2022/10/13 01:10:33;;;;;;;31.50;20.23;;;;;;;10.28;99.79;101184.63;5029661;28;20032;-76
2022/10/13 01:13:08;;;;;;;31.08;20.70;;;;;;;10.34;99.90;101194.03;5026576;28;20034;-75
2022/10/13 01:15:47;;;;;;;28.85;19.00;;;;;;;10.32;99.80;101199.50;5011382;28;20026;-75
2022/10/13 01:18:39;;;;;;;28.90;19.48;;;;;;;10.27;99.19;101193.66;5027223;28;20112;-76
2022/10/13 01:21:20;;;;;;;27.83;19.67;;;;;;;10.26;99.65;101194.63;5024618;28;20570;-76
2022/10/13 01:24:18;;;;;;;25.40;19.08;;;;;;;10.19;99.03;101185.28;5031005;28;20080;-76
2022/10/13 01:27:03;;;;;;;26.35;18.15;;;;;;;10.13;99.04;101187.56;5019854;28;20565;-75
2022/10/13 01:29:39;;;;;;;25.40;19.13;;;;;;;10.11;98.98;101190.34;5030601;28;20026;-76
2022/10/13 01:32:18;;;;;;;28.50;19.65;;;;;;;10.06;98.81;101189.81;5029591;28;20048;-75
2022/10/13 01:35:25;;;;;;;29.30;19.77;;;;;;;10.03;98.50;101190.00;5030558;28;20484;-76
2022/10/13 01:38:01;;;;;;;29.15;19.20;;;;;;;10.02;98.92;101190.09;5018015;28;20037;-76
2022/10/13 01:40:44;;;;;;;29.45;19.52;;;;;;;9.92;98.91;101179.22;5030633;28;20049;-76
2022/10/13 01:43:35;;;;;;;27.83;19.27;;;;;;;9.95;98.93;101183.47;5030191;28;20039;-76
2022/10/13 01:46:08;;;;;;;24.48;18.92;;;;;;;9.92;99.16;101189.91;5030666;28;20397;-76
2022/10/13 01:48:36;;;;;;;27.08;20.30;;;;;;;9.89;99.34;101194.63;5030398;28;20044;-75
2022/10/13 01:51:06;;;;;;;28.73;19.35;;;;;;;9.76;100.00;101175.03;5030441;28;20033;-75
2022/10/13 01:53:32;;;;;;;34.70;20.98;;;;;;;9.81;100.00;101188.97;5030188;28;20026;-75
2022/10/13 01:55:59;;;;;;;25.70;19.42;;;;;;;9.83;100.00;101190.56;5030240;28;20643;-75
2022/10/13 01:58:28;;;;;;;34.50;20.83;;;;;;;9.81;100.00;101188.97;5030104;28;20029;-75
2022/10/13 02:01:13;;;;;;;26.58;20.20;;;;;;;9.81;100.00;101197.00;5030252;28;20036;-75
2022/10/13 02:04:16;;;;;;;30.08;19.92;;;;;;;9.72;100.00;101177.09;5010386;28;20452;-73
2022/10/13 02:07:25;;;;;;;27.60;19.92;;;;;;;9.71;100.00;101179.88;5023586;28;20042;-75
2022/10/13 02:10:01;;;;;;;30.83;19.80;;;;;;;9.72;100.00;101186.94;5008133;28;20045;-75
2022/10/13 02:12:33;;;;;;;27.42;18.73;;;;;;;9.62;100.00;101170.66;5029717;28;20034;-75
2022/10/13 02:15:00;;;;;;;27.55;19.98;;;;;;;9.63;100.00;101172.38;5030129;28;20025;-76
2022/10/13 02:17:26;;;;;;;26.17;18.58;;;;;;;9.66;100.00;101179.31;5029798;28;20044;-75
2022/10/13 02:19:53;;;;;;;32.50;20.33;;;;;;;9.63;100.00;101174.19;5029972;28;20517;-75
2022/10/13 02:22:21;;;;;;;28.25;19.92;;;;;;;9.56;100.00;101164.88;5029591;28;20111;-75
2022/10/13 02:24:47;;;;;;;31.45;20.73;;;;;;;9.52;100.00;101161.56;5030391;28;20485;-75
2022/10/13 02:27:12;;;;;;;28.98;21.48;;;;;;;9.57;100.00;101167.44;5030365;28;20040;-75
2022/10/13 02:29:55;;;;;;;31.30;19.92;;;;;;;9.53;100.00;101165.09;5030317;28;20481;-75
2022/10/13 02:32:22;;;;;;;27.08;19.73;;;;;;;9.44;100.00;101150.53;5022913;28;20023;-75
2022/10/13 02:34:48;;;;;;;29.23;20.00;;;;;;;9.54;100.00;101164.16;5019079;28;20041;-75
2022/10/13 02:37:14;;;;;;;31.45;22.25;;;;;;;9.55;100.00;101168.53;5020302;28;20026;-75
2022/10/13 02:39:40;;;;;;;33.67;22.58;;;;;;;9.53;100.00;101167.75;5022269;28;20021;-76
2022/10/13 02:42:05;;;;;;;33.13;22.55;;;;;;;9.53;100.00;101173.13;5022203;28;20048;-75
2022/10/13 02:44:31;;;;;;;31.17;21.30;;;;;;;9.50;100.00;101170.66;5020787;28;20040;-75
2022/10/13 02:46:56;;;;;;;31.58;20.67;;;;;;;9.49;100.00;101167.13;5021305;28;20049;-75
2022/10/13 02:49:21;;;;;;;29.50;21.42;;;;;;;9.47;100.00;101168.19;5020266;28;20416;-75
2022/10/13 02:51:47;;;;;;;31.42;21.70;;;;;;;9.47;100.00;101169.06;5022099;28;20048;-75
2022/10/13 02:54:12;;;;;;;29.98;20.17;;;;;;;9.42;100.00;101163.19;5019070;28;20025;-75
2022/10/13 02:56:38;;;;;;;37.00;20.95;;;;;;;9.27;100.00;101135.66;5020776;28;20477;-75
2022/10/13 02:59:03;;;;;;;34.53;20.83;;;;;;;9.39;100.00;101159.84;5016363;28;20084;-75
2022/10/13 03:01:29;;;;;;;27.80;19.02;;;;;;;9.33;100.00;101163.81;5020170;28;20054;-75
2022/10/13 03:03:54;;;;;;;33.08;20.15;;;;;;;9.37;100.00;101167.97;5024339;28;20033;-76
2022/10/13 03:06:20;;;;;;;29.77;20.35;;;;;;;9.33;100.00;101161.97;5023033;28;20080;-75
2022/10/13 03:08:45;;;;;;;29.30;19.80;;;;;;;9.24;100.00;101154.59;5017936;28;20370;-76
2022/10/13 03:11:11;;;;;;;28.35;19.48;;;;;;;9.23;100.00;101152.03;5021129;28;20824;-76
2022/10/13 03:13:37;;;;;;;27.08;19.23;;;;;;;9.17;99.82;101155.13;5026017;28;20629;-76
2022/10/13 03:16:02;;;;;;;27.75;18.95;;;;;;;9.23;99.62;101165.41;5021547;28;20829;-75
2022/10/13 03:18:29;;;;;;;29.63;18.83;;;;;;;9.03;99.49;101148.03;5021247;28;20067;-75
2022/10/13 03:21:00;;;;;;;27.92;18.75;;;;;;;9.16;99.25;101169.47;5023574;28;20034;-75
2022/10/13 03:23:25;;;;;;;26.05;19.40;;;;;;;9.08;98.94;101159.28;5020891;28;20451;-75
2022/10/13 03:25:51;;;;;;;28.00;19.85;;;;;;;9.10;99.35;101161.88;5021639;28;20041;-75
2022/10/13 03:28:17;;;;;;;27.08;19.02;;;;;;;9.07;99.86;101168.25;5020561;28;20037;-75
2022/10/13 03:30:42;;;;;;;27.95;18.88;;;;;;;8.94;100.00;101150.50;5020328;28;20057;-76
2022/10/13 03:33:07;;;;;;;32.58;20.02;;;;;;;9.05;99.99;101172.88;5019387;28;20108;-76
2022/10/13 03:35:33;;;;;;;31.38;19.25;;;;;;;9.05;100.00;101170.19;5019172;28;20014;-75
2022/10/13 03:37:58;;;;;;;33.38;20.02;;;;;;;9.02;100.00;101159.72;5020753;28;20025;-75
2022/10/13 03:40:24;;;;;;;29.92;20.02;;;;;;;8.97;100.00;101151.13;5022047;28;20033;-75
2022/10/13 03:42:49;;;;;;;32.60;19.83;;;;;;;8.86;100.00;101140.31;5019507;28;20033;-76
2022/10/13 03:45:15;;;;;;;29.73;19.67;;;;;;;9.01;100.00;101174.06;5018850;28;20037;-76
2022/10/13 03:47:40;;;;;;;31.48;20.83;;;;;;;8.99;100.00;101172.41;5029870;28;20104;-75
2022/10/13 03:50:06;;;;;;;29.85;20.67;;;;;;;8.87;100.00;101150.03;5027240;28;20022;-75
2022/10/13 03:52:32;;;;;;;37.03;20.52;;;;;;;8.84;100.00;101142.22;5013523;28;20038;-75
2022/10/13 03:54:57;;;;;;;31.95;20.20;;;;;;;8.94;100.00;101170.06;5013927;28;20084;-75
2022/10/13 03:57:23;;;;;;;25.55;19.17;;;;;;;8.75;100.00;101133.97;5013922;28;20084;-75
2022/10/13 03:59:48;;;;;;;31.13;19.00;;;;;;;8.91;100.00;101161.41;5013899;28;20032;-75
2022/10/13 04:02:14;;;;;;;29.90;20.23;;;;;;;8.90;100.00;101165.03;5031790;28;20041;-75
2022/10/13 04:04:39;;;;;;;31.75;19.75;;;;;;;8.82;100.00;101151.31;5033568;28;20040;-75
2022/10/13 04:07:06;;;;;;;29.92;20.10;;;;;;;8.86;100.00;101164.38;5033441;28;20037;-75
2022/10/13 04:09:32;;;;;;;30.27;20.48;;;;;;;8.85;100.00;101164.47;5033640;28;20036;-75
2022/10/13 04:11:59;;;;;;;33.38;19.80;;;;;;;8.85;100.00;101169.84;5033120;28;20308;-75
2022/10/13 04:14:24;;;;;;;31.20;19.73;;;;;;;8.69;100.00;101139.72;5032329;28;20041;-75
2022/10/13 04:16:51;;;;;;;34.15;20.65;;;;;;;8.81;100.00;101162.97;5032987;28;20112;-75
2022/10/13 04:19:16;;;;;;;38.17;20.58;;;;;;;8.70;100.00;101146.78;5033036;28;20104;-75
2022/10/13 04:21:42;;;;;;;35.42;20.08;;;;;;;8.76;100.00;101154.38;5032510;28;20041;-75
2022/10/13 04:24:11;;;;;;;32.97;21.05;;;;;;;8.78;100.00;101165.84;5032910;28;20041;-75
2022/10/13 04:26:36;;;;;;;29.15;19.77;;;;;;;8.78;100.00;101165.84;5032704;28;20021;-75
2022/10/13 04:29:04;;;;;;;26.45;18.50;;;;;;;8.75;100.00;101166.06;5031841;28;20037;-75
2022/10/13 04:31:30;;;;;;;33.47;18.80;;;;;;;8.70;100.00;101157.47;5032687;28;20034;-75
2022/10/13 04:33:56;;;;;;;33.75;20.38;;;;;;;8.67;100.00;101160.34;5033260;28;20037;-76
2022/10/13 04:36:22;;;;;;;26.77;19.02;;;;;;;8.68;100.00;101170.09;5032833;28;20029;-75
2022/10/13 04:38:48;;;;;;;33.70;18.67;;;;;;;8.57;100.00;101151.22;5033146;28;20029;-75
2022/10/13 04:41:15;;;;;;;42.45;19.48;;;;;;;8.60;99.84;101162.59;5032689;28;20029;-75
2022/10/13 04:43:41;;;;;;;36.42;19.17;;;;;;;8.58;99.58;101175.19;5032928;28;20473;-75
2022/10/13 04:46:11;;;;;;;36.03;19.88;;;;;;;8.54;99.58;101167.47;5033176;28;20091;-75
2022/10/13 04:48:36;;;;;;;32.63;18.08;;;;;;;8.40;99.38;101149.69;5036925;28;20411;-75
2022/10/13 04:51:08;;;;;;;33.75;18.63;;;;;;;8.52;99.76;101174.75;5037453;28;20037;-75
2022/10/13 04:53:34;;;;;;;34.55;19.10;;;;;;;8.40;99.88;101159.50;5032693;28;20040;-75
2022/10/13 04:56:04;;;;;;;36.95;19.90;;;;;;;8.39;100.00;101163.97;5032920;28;20021;-75
2022/10/13 04:58:30;;;;;;;43.20;19.63;;;;;;;8.45;100.00;101178.78;5032820;28;20041;-75
2022/10/13 05:00:56;;;;;;;41.15;19.63;;;;;;;8.34;100.00;101171.47;5032753;28;20465;-75
2022/10/13 05:03:22;;;;;;;38.15;19.65;;;;;;;8.38;100.00;101183.66;5029890;28;20045;-75
2022/10/13 05:05:48;;;;;;;34.97;19.10;;;;;;;8.25;100.00;101156.03;5029284;28;20017;-75
2022/10/13 05:08:13;;;;;;;34.38;19.02;;;;;;;8.28;100.00;101160.28;5031778;28;20056;-75
2022/10/13 05:10:38;;;;;;;51.33;20.33;;;;;;;8.34;100.00;101171.47;5032389;28;20044;-75
2022/10/13 05:13:04;;;;;;;58.05;18.65;;;;;;;8.27;100.00;101164.81;5032047;28;20037;-75
2022/10/13 05:15:29;;;;;;;41.85;19.15;;;;;;;8.31;100.00;101176.13;5031057;28;20480;-75
2022/10/13 05:17:55;;;;;;;39.50;21.20;;;;;;;8.33;100.00;101174.22;5031072;28;20473;-75
2022/10/13 05:20:20;;;;;;;45.38;20.23;;;;;;;8.31;100.00;101174.34;5031810;28;20103;-75
2022/10/13 05:22:46;;;;;;;45.40;20.95;;;;;;;8.27;100.00;101163.94;5031969;28;20073;-75
2022/10/13 05:25:11;;;;;;;45.25;21.58;;;;;;;8.33;100.00;101174.22;5043485;28;20032;-75
2022/10/13 05:27:36;;;;;;;34.63;20.50;;;;;;;8.39;100.00;101180.03;5036920;28;20025;-75
2022/10/13 05:30:02;;;;;;;37.80;21.92;;;;;;;8.40;100.00;101180.88;5016759;28;20095;-75
2022/10/13 05:32:27;;;;;;;38.70;21.75;;;;;;;8.43;100.00;101175.34;5030891;28;20064;-75
2022/10/13 05:34:53;;;;;;;43.10;21.92;;;;;;;8.41;100.00;101170.09;5031897;28;20025;-75
2022/10/13 05:37:21;;;;;;;42.65;22.77;;;;;;;8.39;100.00;101160.47;5032319;28;20100;-75
2022/10/13 05:39:46;;;;;;;50.97;24.83;;;;;;;8.55;100.00;101182.56;5030951;28;20362;-75
2022/10/13 05:42:12;;;;;;;44.20;24.70;;;;;;;8.53;100.00;101181.81;5032224;28;20028;-75
2022/10/13 05:44:37;;;;;;;51.97;24.70;;;;;;;8.58;100.00;101171.69;5032211;28;20060;-76
2022/10/13 05:47:03;;;;;;;47.22;24.52;;;;;;;8.70;100.00;101192.25;5031809;28;20037;-75
2022/10/13 05:49:28;;;;;;;50.72;24.58;;;;;;;8.76;100.00;101189.16;5032105;28;20128;-75
2022/10/13 05:51:58;;;;;;;39.58;22.85;;;;;;;8.77;100.00;101177.53;5032068;28;20116;-75
2022/10/13 05:54:28;;;;;;;39.92;22.10;;;;;;;8.90;100.00;101191.78;5031929;28;20037;-75
2022/10/13 05:57:02;;;;;;;45.38;23.52;;;;;;;8.91;100.00;101185.47;5027402;28;20040;-75
2022/10/13 05:59:33;;;;;;;41.15;22.70;;;;;;;8.88;100.00;101166.94;5031537;28;20122;-75
2022/10/13 06:02:00;;;;;;;42.65;23.05;;;;;;;8.84;100.00;101152.06;5031572;28;20032;-75
2022/10/13 06:04:34;;;;;;;34.63;22.17;;;;;;;9.14;100.00;101185.63;5031354;28;20634;-75
2022/10/13 06:07:00;;;;;;;31.02;22.10;;;;;;;9.18;100.00;101189.81;5030059;28;20029;-75
2022/10/13 06:09:33;;;;;;;31.13;22.08;;;;;;;9.28;100.00;101195.38;5031311;28;20048;-75
2022/10/13 06:11:59;;;;;;;42.15;24.35;;;;;;;9.36;100.00;101192.19;5031394;28;20027;-75
2022/10/13 06:14:24;;;;;;;40.53;22.60;;;;;;;9.42;100.00;101194.44;5030169;28;20029;-75
2022/10/13 06:16:49;;;;;;;46.10;23.20;;;;;;;9.50;100.00;101195.63;5029985;28;20025;-75
2022/10/13 06:19:15;;;;;;;49.58;23.52;;;;;;;9.54;100.00;101185.56;5029341;28;20060;-75
2022/10/13 06:21:40;;;;;;;44.00;24.83;;;;;;;9.54;100.00;101173.00;5029807;28;20037;-75
2022/10/13 06:24:06;;;;;;;38.05;22.88;;;;;;;9.71;100.00;101185.22;5030388;28;20077;-75
2022/10/13 06:26:31;;;;;;;35.33;21.48;;;;;;;9.78;100.00;101187.38;5030503;28;20094;-75
2022/10/13 06:28:57;;;;;;;38.78;21.80;;;;;;;9.90;100.00;101194.53;5028368;28;20025;-75
2022/10/13 06:31:22;;;;;;;32.83;20.27;;;;;;;10.04;100.00;101198.91;5030884;28;20065;-75
2022/10/13 06:33:47;;;;;;;31.35;21.20;;;;;;;10.13;100.00;101200.97;5030549;28;20029;-75
2022/10/13 06:36:13;;;;;;;38.50;21.02;;;;;;;10.24;100.00;101209.06;5030435;28;20071;-75
2022/10/13 06:38:38;;;;;;;38.40;20.17;;;;;;;10.37;100.00;101208.09;5029341;28;20025;-74
2022/10/13 06:41:04;;;;;;;31.75;19.60;;;;;;;10.48;100.00;101205.47;5030116;28;20104;-75
2022/10/13 06:43:30;;;;;;;38.45;19.33;;;;;;;10.62;100.00;101208.00;5030295;28;20741;-75
2022/10/13 06:45:59;;;;;;;29.83;18.27;;;;;;;10.78;100.00;101207.72;5030537;28;20025;-75
2022/10/13 06:48:26;;;;;;;29.85;17.83;;;;;;;10.96;100.00;101201.81;5030106;28;20029;-75
2022/10/13 06:50:52;;;;;;;27.58;18.10;;;;;;;11.08;100.00;101189.31;5030053;28;20071;-74
2022/10/13 06:53:17;;;;;;;24.35;17.30;;;;;;;11.27;100.00;101195.84;5030528;28;20021;-74
2022/10/13 06:55:43;;;;;;;24.77;16.40;;;;;;;11.46;98.44;101198.84;5030240;28;20088;-75
2022/10/13 06:58:09;;;;;;;26.45;16.73;;;;;;;11.60;97.34;101191.53;5030089;28;20029;-75
2022/10/13 07:00:36;;;;;;;26.67;16.55;;;;;;;11.68;95.96;101181.91;5029718;28;20508;-75
2022/10/13 07:03:02;;;;;;;25.45;17.15;;;;;;;11.89;94.18;101188.28;5029832;28;20052;-74
2022/10/13 07:05:27;;;;;;;25.85;16.38;;;;;;;12.04;92.41;101191.56;5030216;28;20049;-75
2022/10/13 07:07:53;;;;;;;24.00;15.63;;;;;;;12.09;91.33;101178.63;5028672;28;20473;-75
2022/10/13 07:10:19;;;;;;;23.65;14.75;;;;;;;12.27;89.71;101177.13;5029659;28;20083;-75
2022/10/13 07:12:44;;;;;;;20.10;13.07;;;;;;;12.55;88.17;101192.72;5028551;28;20034;-74
2022/10/13 07:15:10;;;;;;;25.48;13.43;;;;;;;12.78;86.63;101187.16;5029896;28;20120;-74
2022/10/13 07:17:36;;;;;;;18.50;12.13;;;;;;;12.90;81.99;101166.44;5029606;28;20083;-74
2022/10/13 07:20:03;;;;;;;20.60;12.55;;;;;;;13.25;79.44;101188.56;5029339;28;20025;-74
2022/10/13 07:22:29;;;;;;;16.75;11.30;;;;;;;13.41;76.73;101179.06;5029643;28;20374;-74
2022/10/13 07:24:55;;;;;;;16.23;9.98;;;;;;;13.61;75.96;101170.09;5029545;28;20072;-74
2022/10/13 07:27:21;;;;;;;20.63;10.02;;;;;;;14.09;73.60;101175.72;5032854;28;20033;-74
2022/10/13 07:29:46;;;;;;;16.95;9.55;;;;;;;14.35;71.22;101171.56;5033829;28;20047;-74
2022/10/13 07:32:12;;;;;;;13.68;9.70;;;;;;;14.74;68.71;101161.72;5024149;28;20033;-74
2022/10/13 07:34:37;;;;;;;15.02;9.15;;;;;;;15.48;65.05;101166.41;5023504;28;20034;-72
2022/10/13 07:37:03;;;;;;;15.68;8.93;;;;;;;15.97;62.63;101165.25;5016296;28;20025;-72
2022/10/13 07:39:28;;;;;;;11.95;8.13;;;;;;;16.50;60.32;101148.19;5033602;28;20075;-72
2022/10/13 07:41:54;;;;;;;13.85;8.65;;;;;;;17.16;58.26;101154.09;5032437;28;20746;-72
2022/10/13 07:44:19;;;;;;;17.20;8.73;;;;;;;17.71;56.15;101139.28;5032700;28;20477;-72
2022/10/13 07:46:44;;;;;;;13.85;8.05;;;;;;;18.30;54.29;101144.66;5037338;28;20024;-72
2022/10/13 07:49:11;;;;;;;17.83;8.15;;;;;;;18.91;52.69;101139.75;5050961;28;20052;-72
2022/10/13 07:51:36;;;;;;;11.48;6.82;;;;;;;19.35;51.49;101135.69;5039654;28;20025;-72
2022/10/13 07:54:02;;;;;;;11.90;7.72;;;;;;;19.60;49.94;101136.50;5041554;28;20045;-72
2022/10/13 07:56:27;;;;;;;12.02;7.25;;;;;;;19.62;49.38;101123.59;5035221;28;20067;-72
2022/10/13 07:58:53;;;;;;;11.45;7.60;;;;;;;20.01;48.77;101136.25;5046450;28;20036;-72
2022/10/13 08:01:18;;;;;;;8.88;6.50;;;;;;;20.19;48.27;101131.44;5031923;28;20037;-73
2022/10/13 08:03:44;;;;;;;14.98;6.45;;;;;;;19.86;48.55;101129.81;5043222;28;20102;-72
2022/10/13 08:06:10;;;;;;;13.57;6.45;;;;;;;19.43;49.60;101134.84;5047522;28;20040;-72
2022/10/13 08:08:36;;;;;;;12.45;6.57;;;;;;;18.92;50.83;101135.16;5048383;28;20021;-72
2022/10/13 08:11:05;;;;;;;9.23;5.68;;;;;;;18.56;51.80;101139.16;5039685;28;20368;-72
2022/10/13 08:13:31;;;;;;;14.25;6.28;;;;;;;18.34;51.87;101134.31;5036260;28;20040;-72
2022/10/13 08:16:00;;;;;;;11.13;6.72;;;;;;;18.13;52.29;101134.75;5045987;28;20036;-72
2022/10/13 08:18:25;;;;;;;17.42;7.55;;;;;;;17.80;53.86;101138.31;5033211;28;20087;-72
2022/10/13 08:20:50;;;;;;;11.40;6.00;;;;;;;17.59;54.82;101137.84;5038126;28;20087;-72
2022/10/13 08:23:16;;;;;;;15.07;6.43;;;;;;;17.47;55.45;101137.25;5044339;28;20041;-72
2022/10/13 08:25:43;;;;;;;9.25;5.97;;;;;;;17.43;56.26;101135.00;5050104;28;20186;-72
2022/10/13 08:28:23;;;;;;;10.10;6.38;;;;;;;17.34;56.74;101138.63;5035577;28;20473;-72
2022/10/13 08:30:56;;;;;;;10.02;6.13;;;;;;;17.30;55.98;101123.69;5046664;28;20460;-72
2022/10/13 08:33:23;;;;;;;10.07;6.00;;;;;;;17.34;55.40;101138.63;5042209;28;20040;-73
2022/10/13 08:35:49;;;;;;;11.10;6.30;;;;;;;17.30;55.81;101132.69;5036047;28;20045;-73
2022/10/13 08:38:14;;;;;;;11.85;5.97;;;;;;;17.27;55.97;101141.16;5021675;28;20080;-74
2022/10/13 08:40:45;;;;;;;11.05;6.18;;;;;;;17.25;55.49;101132.31;5047405;28;20060;-75
2022/10/13 08:43:17;;;;;;;7.28;5.55;;;;;;;17.26;55.44;101128.59;5038753;28;20535;-74
2022/10/13 08:45:43;;;;;;;8.23;6.05;;;;;;;17.31;55.25;101125.38;5037391;28;20495;-75
2022/10/13 08:48:16;;;;;;;14.38;5.78;;;;;;;17.31;56.02;101122.69;5034496;28;20060;-75
2022/10/13 08:50:45;;;;;;;10.88;6.53;;;;;;;17.47;55.55;101133.69;5046990;28;20029;-75
2022/10/13 08:53:21;;;;;;;12.88;6.30;;;;;;;17.56;55.53;101128.16;5038995;28;20035;-74
2022/10/13 08:55:54;;;;;;;11.07;6.35;;;;;;;17.80;55.51;101135.63;5038099;28;20029;-74
2022/10/13 08:58:24;;;;;;;11.60;6.10;;;;;;;18.15;54.83;101131.88;5033060;28;20029;-75
2022/10/13 09:01:04;;;;;;;9.07;5.50;;;;;;;19.18;52.40;101123.09;5045854;28;20041;-74
2022/10/13 09:03:29;;;;;;;11.82;5.60;;;;;;;20.99;47.59;101127.41;5042743;28;20502;-74
2022/10/13 09:05:55;;;;;;;13.52;5.70;;;;;;;22.53;43.59;101120.16;5036239;28;20029;-74
2022/10/13 09:08:22;;;;;;;13.75;5.28;;;;;;;24.03;40.06;101105.13;5038466;28;20107;-75
2022/10/13 09:10:51;;;;;;;6.45;4.72;;;;;;;25.27;37.83;101105.50;5044914;28;20116;-74
2022/10/13 09:13:17;;;;;;;11.77;5.18;;;;;;;26.22;36.17;101102.03;5040593;28;20025;-75
2022/10/13 09:15:45;;;;;;;8.65;5.00;;;;;;;26.49;35.04;101092.63;5048767;28;20029;-72
2022/10/13 09:18:12;;;;;;;10.00;4.88;;;;;;;27.10;34.05;101095.66;5034584;28;20030;-72
2022/10/13 09:20:38;;;;;;;8.98;4.53;;;;;;;26.77;34.03;101078.53;5046731;28;20025;-72
2022/10/13 09:23:14;;;;;;;9.50;4.93;;;;;;;26.77;33.88;101091.44;5031839;28;20060;-73
2022/10/13 09:25:51;;;;;;;11.98;4.80;;;;;;;27.41;32.96;101092.06;5043909;28;20179;-73
2022/10/13 09:28:26;;;;;;;8.05;5.15;;;;;;;27.87;32.36;101089.72;5034585;28;20100;-73
2022/10/13 09:31:05;;;;;;;11.35;5.43;;;;;;;28.47;31.69;101094.34;5044863;28;20342;-73
2022/10/13 09:33:36;;;;;;;11.48;4.85;;;;;;;28.89;31.28;101092.47;5033486;28;20429;-73
2022/10/13 09:36:02;;;;;;;8.88;4.60;;;;;;;29.30;30.77;101084.19;5046364;28;20035;-72
2022/10/13 09:38:27;;;;;;;8.65;4.30;;;;;;;29.70;30.30;101076.91;5020586;28;20017;-72
2022/10/13 09:40:56;;;;;;;11.02;5.00;;;;;;;29.96;29.49;101084.72;5040400;28;20029;-73
2022/10/13 09:43:46;;;;;;;10.13;4.70;;;;;;;30.54;28.90;101079.91;5029536;28;20037;-72
2022/10/13 09:46:25;;;;;;;8.05;5.00;;;;;;;30.97;28.11;101073.81;5030668;28;20476;-73
2022/10/13 09:48:54;;;;;;;8.38;4.57;;;;;;;31.13;28.17;101071.06;5033123;28;20547;-72
2022/10/13 09:51:31;;;;;;;12.70;5.30;;;;;;;31.43;27.67;101068.00;5038713;28;20025;-72
2022/10/13 09:53:57;;;;;;;9.98;5.20;;;;;;;31.38;27.44;101046.56;5042470;28;20519;-72
2022/10/13 09:56:30;;;;;;;9.77;5.63;;;;;;;31.60;27.29;101066.06;5027206;28;20037;-72
2022/10/13 09:59:33;;;;;;;9.20;5.13;;;;;;;31.62;27.27;101063.84;5026114;28;20053;-73
2022/10/13 10:02:12;;;;;;;9.82;6.40;;;;;;;31.60;27.41;101064.09;5027156;28;20095;-73
2022/10/13 10:04:42;;;;;;;10.20;5.40;;;;;;;31.76;27.26;101034.66;5029802;28;20025;-72
2022/10/13 10:07:16;;;;;;;8.07;5.78;;;;;;;32.27;26.42;101051.75;5038664;28;20516;-72
2022/10/13 10:09:50;;;;;;;8.90;4.80;;;;;;;32.66;26.73;101054.47;5022516;28;20124;-72
2022/10/13 10:12:20;;;;;;;9.25;5.47;;;;;;;32.90;26.43;101045.56;5024535;28;20056;-72
2022/10/13 10:14:47;;;;;;;9.40;6.18;;;;;;;32.68;26.73;101046.72;5031967;28;20541;-72
2022/10/13 10:17:31;;;;;;;11.15;6.80;;;;;;;32.76;26.35;101054.56;5035245;28;20144;-72
2022/10/13 10:20:03;;;;;;;7.88;5.85;;;;;;;32.76;26.02;101040.66;5039178;28;20044;-72
2022/10/13 10:22:47;;;;;;;11.82;6.28;;;;;;;31.83;27.27;101036.19;5035747;28;20049;-73
2022/10/13 10:25:37;;;;;;;12.20;6.30;;;;;;;31.00;28.23;101046.44;5031014;28;20045;-72
2022/10/13 10:28:09;;;;;;;10.85;6.45;;;;;;;29.67;30.19;101038.66;5038176;28;20029;-72
2022/10/13 10:30:44;;;;;;;9.18;6.35;;;;;;;28.82;31.26;101044.78;5025881;28;20127;-72
2022/10/13 10:33:17;;;;;;;8.20;6.80;;;;;;;27.58;33.51;101044.41;5036421;28;20057;-72
2022/10/13 10:35:55;;;;;;;11.70;6.82;;;;;;;26.80;34.99;101033.19;5035641;28;20504;-72
2022/10/13 10:38:47;;;;;;;13.50;6.70;;;;;;;25.81;36.49;101037.41;5036020;28;20086;-72
2022/10/13 10:41:31;;;;;;;17.30;7.30;;;;;;;24.81;38.19;101036.84;5034035;28;20080;-63
2022/10/13 10:44:00;;;;;;;8.52;7.13;;;;;;;24.15;39.76;101038.53;5038827;28;20059;-63
2022/10/13 10:46:30;;;;;;;11.80;6.85;;;;;;;23.59;40.99;101036.97;5036191;28;20040;-63
2022/10/13 10:49:00;;;;;;;11.00;7.72;;;;;;;22.78;42.59;101009.34;5036868;28;20406;-62
2022/10/13 10:51:36;;;;;;;11.57;8.98;;;;;;;22.45;43.37;101034.66;5042281;28;20045;-62
2022/10/13 10:54:17;;;;;;;12.45;7.85;;;;;;;22.01;44.47;101035.63;5027579;28;20041;-63
2022/10/13 10:56:51;;;;;;;10.25;6.43;;;;;;;21.81;44.58;101022.72;5038099;28;20033;-62
2022/10/13 10:59:35;;;;;;;14.48;8.05;;;;;;;21.40;46.43;101024.19;5037612;28;20025;-62
2022/10/13 11:02:06;;;;;;;14.15;8.68;;;;;;;21.16;46.66;101024.47;5031967;28;20104;-62
2022/10/13 11:04:39;;;;;;;14.93;9.00;;;;;;;20.91;48.02;101025.69;5042566;28;20036;-62
2022/10/13 11:07:12;;;;;;;15.90;8.57;;;;;;;20.81;47.82;101031.41;5032918;28;20503;-63
2022/10/13 11:09:41;;;;;;;12.82;8.63;;;;;;;20.65;48.27;101027.94;5041157;28;20036;-63
2022/10/13 11:12:18;;;;;;;12.48;7.85;;;;;;;20.51;48.37;101023.28;5031533;28;20053;-62
2022/10/13 11:14:53;;;;;;;11.35;8.45;;;;;;;20.40;49.22;101015.50;5033444;28;20041;-63
2022/10/13 11:17:30;;;;;;;19.05;9.32;;;;;;;20.33;49.63;101011.81;5037491;28;20028;-63
2022/10/13 11:19:56;;;;;;;18.20;9.32;;;;;;;20.29;49.85;101002.31;5043398;28;20037;-63
2022/10/13 11:22:29;;;;;;;12.43;8.68;;;;;;;20.15;49.85;100998.47;5032021;28;20056;-62